Time;durP1;ratioP1;P1;durP2;ratioP2;P2;SDS_P1;SDS_P2;PMS_P1;PMS_P2;Temp;Humidity;BMP_temperature;BMP_pressure;BME280_temperature;BME280_humidity;BME280_pressure;Samples;Min_cycle;Max_cycle;Signal;HPM_P1;HPM_P2
2021/09/13 00:01:23;;;;;;;11.25;2.78;;;;;;;;;;5090303;28;20391;-63
2021/09/13 00:03:49;;;;;;;19.55;2.47;;;;;;;;;;5091178;28;20456;-64
2021/09/13 00:06:15;;;;;;;9.15;2.58;;;;;;;;;;5055515;28;22005;-64
2021/09/13 00:08:41;;;;;;;14.98;2.50;;;;;;;;;;5088949;28;20131;-63
2021/09/13 00:11:08;;;;;;;14.77;2.60;;;;;;;;;;5065371;28;20048;-63
2021/09/13 00:13:34;;;;;;;17.38;3.30;;;;;;;;;;5087980;28;20051;-64
2021/09/13 00:16:02;;;;;;;12.73;3.15;;;;;;;;;;5095211;28;20035;-64
2021/09/13 00:18:28;;;;;;;14.45;3.05;;;;;;;;;;5100183;28;20044;-63
2021/09/13 00:20:54;;;;;;;15.50;2.72;;;;;;;;;;5099400;28;20502;-64
2021/09/13 00:23:21;;;;;;;12.23;3.33;;;;;;;;;;5103025;28;20047;-63
2021/09/13 00:25:47;;;;;;;12.52;2.30;;;;;;;;;;5085021;28;20040;-64
2021/09/13 00:28:14;;;;;;;10.00;2.08;;;;;;;;;;5098235;28;20054;-64
2021/09/13 00:30:41;;;;;;;17.58;2.05;;;;;;;;;;5081758;28;20047;-64
2021/09/13 00:33:07;;;;;;;32.88;3.08;;;;;;;;;;5104002;28;20055;-63
2021/09/13 00:35:34;;;;;;;12.98;2.05;;;;;;;;;;5105402;28;20040;-63
2021/09/13 00:38:00;;;;;;;8.75;2.80;;;;;;;;;;5088277;28;20063;-63
2021/09/13 00:40:26;;;;;;;8.60;1.65;;;;;;;;;;5101500;28;20050;-63
2021/09/13 00:42:52;;;;;;;9.40;1.90;;;;;;;;;;5080623;28;20051;-63
2021/09/13 00:45:18;;;;;;;15.63;2.35;;;;;;;;;;5083801;28;20044;-63
2021/09/13 00:47:45;;;;;;;9.38;2.10;;;;;;;;;;5098576;28;20724;-63
2021/09/13 00:50:11;;;;;;;14.88;2.08;;;;;;;;;;5103727;28;20469;-63
2021/09/13 00:52:37;;;;;;;7.68;1.77;;;;;;;;;;5102291;28;20127;-64
2021/09/13 00:55:04;;;;;;;15.02;2.35;;;;;;;;;;5090881;28;20109;-64
2021/09/13 00:57:30;;;;;;;11.07;2.10;;;;;;;;;;5096963;28;20039;-63
2021/09/13 00:59:57;;;;;;;13.65;2.60;;;;;;;;;;5080605;28;20097;-63
2021/09/13 01:02:23;;;;;;;9.50;2.50;;;;;;;;;;5096051;28;20405;-63
2021/09/13 01:04:49;;;;;;;10.68;2.15;;;;;;;;;;5094245;28;20520;-63
2021/09/13 01:07:16;;;;;;;11.48;2.00;;;;;;;;;;5090927;28;20384;-64
2021/09/13 01:09:42;;;;;;;11.82;2.05;;;;;;;;;;5094109;28;20471;-64
2021/09/13 01:12:09;;;;;;;11.70;1.95;;;;;;;;;;5087740;28;20059;-64
2021/09/13 01:14:36;;;;;;;8.68;1.73;;;;;;;;;;5096370;28;20098;-63
2021/09/13 01:17:03;;;;;;;9.45;1.48;;;;;;;;;;5093800;28;20075;-63
2021/09/13 01:19:29;;;;;;;15.73;2.78;;;;;;;;;;5074450;28;20074;-63
2021/09/13 01:21:57;;;;;;;9.32;1.80;;;;;;;;;;5098468;28;20063;-63
2021/09/13 01:24:23;;;;;;;9.45;2.00;;;;;;;;;;5074817;28;20127;-63
2021/09/13 01:26:49;;;;;;;17.27;2.42;;;;;;;;;;5092683;28;20040;-64
2021/09/13 01:29:15;;;;;;;10.73;2.47;;;;;;;;;;5097136;28;20054;-63
2021/09/13 01:31:42;;;;;;;12.23;2.50;;;;;;;;;;5099055;28;20048;-63
2021/09/13 01:34:08;;;;;;;8.45;1.60;;;;;;;;;;5096586;28;20069;-63
2021/09/13 01:36:34;;;;;;;11.38;2.17;;;;;;;;;;5082081;28;20456;-63
2021/09/13 01:39:00;;;;;;;10.10;2.20;;;;;;;;;;5096842;28;20036;-64
2021/09/13 01:41:26;;;;;;;9.95;2.10;;;;;;;;;;5078552;28;20047;-63
2021/09/13 01:43:52;;;;;;;7.60;1.80;;;;;;;;;;5079384;28;20055;-64
2021/09/13 01:46:19;;;;;;;9.30;2.17;;;;;;;;;;5099225;28;20065;-64
2021/09/13 01:48:45;;;;;;;15.52;2.33;;;;;;;;;;5082472;28;20429;-63
2021/09/13 01:51:11;;;;;;;6.57;1.92;;;;;;;;;;5080606;28;20933;-63
2021/09/13 01:53:37;;;;;;;9.18;2.45;;;;;;;;;;5098475;28;20100;-64
2021/09/13 01:56:03;;;;;;;8.45;2.10;;;;;;;;;;5079185;28;20054;-63
2021/09/13 01:58:29;;;;;;;10.93;2.10;;;;;;;;;;5096570;28;20115;-63
2021/09/13 02:00:56;;;;;;;8.93;1.80;;;;;;;;;;5079586;28;20060;-63
2021/09/13 02:03:22;;;;;;;9.88;2.35;;;;;;;;;;5076642;28;20058;-63
2021/09/13 02:05:48;;;;;;;9.35;2.10;;;;;;;;;;5098457;28;20052;-63
2021/09/13 02:08:14;;;;;;;8.80;2.20;;;;;;;;;;5096594;28;20036;-63
2021/09/13 02:10:40;;;;;;;5.47;1.85;;;;;;;;;;5095207;28;20063;-63
2021/09/13 02:13:06;;;;;;;12.57;2.20;;;;;;;;;;5074880;28;20047;-63
2021/09/13 02:15:32;;;;;;;16.10;2.53;;;;;;;;;;5096278;28;20036;-63
2021/09/13 02:17:59;;;;;;;12.55;2.47;;;;;;;;;;5097195;28;20055;-63
2021/09/13 02:20:25;;;;;;;13.63;2.58;;;;;;;;;;5094965;28;20118;-63
2021/09/13 02:22:51;;;;;;;10.85;2.50;;;;;;;;;;5100761;28;20051;-63
2021/09/13 02:25:17;;;;;;;11.35;2.40;;;;;;;;;;5094599;28;20071;-63
2021/09/13 02:27:43;;;;;;;14.05;2.33;;;;;;;;;;5096324;28;20084;-63
2021/09/13 02:30:10;;;;;;;14.35;2.63;;;;;;;;;;5092878;28;20036;-64
2021/09/13 02:32:36;;;;;;;13.75;2.80;;;;;;;;;;5081670;28;20051;-63
2021/09/13 02:35:05;;;;;;;17.65;2.92;;;;;;;;;;5081484;28;20044;-63
2021/09/13 02:37:32;;;;;;;11.07;2.92;;;;;;;;;;5101329;28;20135;-64
2021/09/13 02:39:59;;;;;;;17.20;3.25;;;;;;;;;;5097325;28;20402;-64
2021/09/13 02:42:25;;;;;;;10.98;3.22;;;;;;;;;;5102038;28;20035;-63
2021/09/13 02:44:51;;;;;;;14.90;2.35;;;;;;;;;;5097414;28;20044;-63
2021/09/13 02:47:17;;;;;;;8.88;2.95;;;;;;;;;;5081559;28;20040;-63
2021/09/13 02:49:44;;;;;;;13.68;2.63;;;;;;;;;;5079039;28;20052;-63
2021/09/13 02:52:10;;;;;;;15.55;2.50;;;;;;;;;;5100047;28;20564;-64
2021/09/13 02:54:36;;;;;;;9.48;2.42;;;;;;;;;;5076015;28;20530;-64
2021/09/13 02:57:02;;;;;;;10.63;2.83;;;;;;;;;;5090661;28;20399;-63
2021/09/13 02:59:28;;;;;;;14.10;2.85;;;;;;;;;;5090009;28;20375;-63
2021/09/13 03:01:54;;;;;;;23.67;3.33;;;;;;;;;;5087539;28;20068;-63
2021/09/13 03:04:21;;;;;;;12.48;2.35;;;;;;;;;;5087717;28;20047;-64
2021/09/13 03:06:47;;;;;;;14.02;3.05;;;;;;;;;;5097628;28;20032;-64
2021/09/13 03:09:13;;;;;;;13.95;3.75;;;;;;;;;;5077583;28;21477;-63
2021/09/13 03:11:40;;;;;;;9.25;2.75;;;;;;;;;;5079537;28;20081;-63
2021/09/13 03:14:06;;;;;;;10.05;2.50;;;;;;;;;;5099523;28;20054;-63
2021/09/13 03:16:32;;;;;;;9.80;2.42;;;;;;;;;;5097016;28;20062;-63
2021/09/13 03:18:58;;;;;;;15.98;3.28;;;;;;;;;;5081091;28;20048;-63
2021/09/13 03:21:24;;;;;;;8.88;3.05;;;;;;;;;;5101322;28;20368;-63
2021/09/13 03:23:50;;;;;;;12.27;2.95;;;;;;;;;;5101911;28;20043;-63
2021/09/13 03:26:17;;;;;;;9.70;2.78;;;;;;;;;;5098705;28;20072;-63
2021/09/13 03:28:43;;;;;;;10.68;3.33;;;;;;;;;;5072245;28;20045;-63
2021/09/13 03:31:09;;;;;;;12.13;2.88;;;;;;;;;;5096565;28;20043;-64
2021/09/13 03:33:35;;;;;;;13.63;2.97;;;;;;;;;;5079854;28;20055;-64
2021/09/13 03:36:01;;;;;;;13.52;3.15;;;;;;;;;;5101535;28;20063;-64
2021/09/13 03:38:28;;;;;;;15.85;3.22;;;;;;;;;;5097555;28;20124;-63
2021/09/13 03:40:54;;;;;;;12.68;3.03;;;;;;;;;;5095861;28;20057;-64
2021/09/13 03:43:20;;;;;;;13.35;3.03;;;;;;;;;;5093147;28;20093;-64
2021/09/13 03:45:46;;;;;;;10.77;3.20;;;;;;;;;;5093880;28;20118;-64
2021/09/13 03:48:12;;;;;;;12.77;2.97;;;;;;;;;;5092863;28;20458;-63
2021/09/13 03:50:39;;;;;;;12.82;3.05;;;;;;;;;;5094287;28;20052;-63
2021/09/13 03:53:05;;;;;;;10.60;3.08;;;;;;;;;;5093136;28;20047;-63
2021/09/13 03:55:32;;;;;;;11.95;2.65;;;;;;;;;;5096090;28;20036;-63
2021/09/13 03:57:58;;;;;;;13.77;3.17;;;;;;;;;;5098161;28;20106;-63
2021/09/13 04:00:25;;;;;;;8.77;2.40;;;;;;;;;;5078814;28;20051;-63
2021/09/13 04:02:51;;;;;;;12.80;2.80;;;;;;;;;;5079143;28;20115;-63
2021/09/13 04:05:20;;;;;;;10.32;2.92;;;;;;;;;;5080916;28;20104;-63
2021/09/13 04:10:23;;;;;;;8.63;3.28;;;;;;;;;;5094720;28;20082;-63
2021/09/13 04:12:50;;;;;;;15.65;3.53;;;;;;;;;;5077087;28;20039;-63
2021/09/13 04:15:16;;;;;;;14.15;3.58;;;;;;;;;;5097786;28;20035;-64
2021/09/13 04:17:42;;;;;;;15.48;3.50;;;;;;;;;;5096541;28;20097;-63
2021/09/13 04:20:09;;;;;;;10.98;3.28;;;;;;;;;;5077488;28;20446;-64
2021/09/13 04:22:35;;;;;;;18.00;3.47;;;;;;;;;;5097193;28;20112;-63
2021/09/13 04:25:01;;;;;;;10.02;2.97;;;;;;;;;;5096844;28;20032;-63
2021/09/13 04:27:29;;;;;;;11.45;2.90;;;;;;;;;;5095493;28;20044;-63
2021/09/13 04:29:55;;;;;;;9.90;3.45;;;;;;;;;;5099150;28;20424;-64
2021/09/13 04:32:22;;;;;;;13.07;3.40;;;;;;;;;;5073746;28;20056;-63
2021/09/13 04:34:48;;;;;;;9.20;2.53;;;;;;;;;;5072836;28;20123;-63
2021/09/13 04:37:14;;;;;;;8.43;2.42;;;;;;;;;;5073309;28;20044;-63
2021/09/13 04:39:41;;;;;;;15.48;3.33;;;;;;;;;;5072169;28;20120;-63
2021/09/13 04:42:07;;;;;;;12.50;3.00;;;;;;;;;;5074239;28;20112;-63
2021/09/13 04:44:33;;;;;;;11.38;2.80;;;;;;;;;;5079354;28;20446;-63
2021/09/13 04:46:59;;;;;;;9.40;2.22;;;;;;;;;;5075991;28;20036;-63
2021/09/13 04:49:25;;;;;;;11.60;3.63;;;;;;;;;;5075117;28;20033;-63
2021/09/13 04:51:52;;;;;;;10.52;3.15;;;;;;;;;;5076595;28;20047;-63
2021/09/13 04:54:18;;;;;;;7.03;2.70;;;;;;;;;;5075435;28;20059;-63
2021/09/13 04:56:45;;;;;;;9.52;2.58;;;;;;;;;;5071613;28;20462;-63
2021/09/13 04:59:11;;;;;;;6.38;2.25;;;;;;;;;;5067466;28;20044;-63
2021/09/13 05:01:38;;;;;;;7.68;2.50;;;;;;;;;;5071082;28;20040;-63
2021/09/13 05:04:06;;;;;;;2.78;1.30;;;;;;;;;;5070150;28;20057;-63
2021/09/13 05:06:33;;;;;;;5.30;1.58;;;;;;;;;;5067531;28;20047;-64
2021/09/13 05:08:59;;;;;;;4.25;1.40;;;;;;;;;;5076673;28;20074;-63
2021/09/13 05:11:25;;;;;;;3.97;0.80;;;;;;;;;;5081736;28;20468;-63
2021/09/13 05:13:53;;;;;;;1.52;0.73;;;;;;;;;;5079367;28;20055;-63
2021/09/13 05:16:19;;;;;;;2.85;1.20;;;;;;;;;;5076898;28;20047;-63
2021/09/13 05:18:45;;;;;;;6.05;1.30;;;;;;;;;;5079732;28;20131;-63
2021/09/13 05:21:12;;;;;;;5.70;1.15;;;;;;;;;;5080614;28;20453;-63
2021/09/13 05:23:38;;;;;;;12.82;1.05;;;;;;;;;;5076470;28;20042;-63
2021/09/13 05:26:05;;;;;;;7.15;1.23;;;;;;;;;;5084371;28;20044;-63
2021/09/13 05:28:31;;;;;;;2.40;0.82;;;;;;;;;;5081519;28;20048;-63
2021/09/13 05:30:57;;;;;;;4.15;1.45;;;;;;;;;;5080368;28;20156;-63
2021/09/13 05:33:24;;;;;;;4.35;1.73;;;;;;;;;;5098807;28;20154;-64
2021/09/13 05:35:50;;;;;;;4.78;2.05;;;;;;;;;;5101035;28;20096;-63
2021/09/13 05:38:16;;;;;;;5.35;2.47;;;;;;;;;;5098263;28;20138;-63
2021/09/13 05:40:44;;;;;;;8.15;2.65;;;;;;;;;;5100547;28;20433;-62
2021/09/13 05:43:11;;;;;;;8.00;3.20;;;;;;;;;;5099618;28;20039;-62
2021/09/13 05:45:37;;;;;;;8.10;2.33;;;;;;;;;;5100729;28;20115;-63
2021/09/13 05:48:04;;;;;;;5.15;2.45;;;;;;;;;;5081383;28;20055;-62
2021/09/13 05:50:30;;;;;;;10.60;2.70;;;;;;;;;;5096349;28;20169;-62
2021/09/13 05:52:57;;;;;;;5.53;2.65;;;;;;;;;;5079620;28;20056;-63
2021/09/13 05:55:23;;;;;;;10.85;2.67;;;;;;;;;;5100743;28;20063;-64
2021/09/13 05:57:49;;;;;;;9.20;2.67;;;;;;;;;;5085843;28;20039;-64
2021/09/13 06:00:15;;;;;;;7.43;2.75;;;;;;;;;;5100525;28;20123;-64
2021/09/13 06:02:42;;;;;;;5.35;2.42;;;;;;;;;;5081896;28;20054;-64
2021/09/13 06:05:08;;;;;;;8.63;2.88;;;;;;;;;;5079558;28;20055;-64
2021/09/13 06:07:34;;;;;;;9.02;3.00;;;;;;;;;;5097649;28;20039;-64
2021/09/13 06:10:00;;;;;;;11.05;3.28;;;;;;;;;;5083218;28;20044;-64
2021/09/13 06:12:27;;;;;;;6.50;3.10;;;;;;;;;;5082656;28;20399;-64
2021/09/13 06:14:55;;;;;;;9.13;2.58;;;;;;;;;;5085179;28;20116;-64
2021/09/13 06:17:21;;;;;;;8.52;2.92;;;;;;;;;;5095817;28;20051;-63
2021/09/13 06:19:48;;;;;;;8.57;3.95;;;;;;;;;;5101839;28;20073;-64
2021/09/13 06:22:14;;;;;;;7.45;2.72;;;;;;;;;;5097393;28;20122;-72
2021/09/13 06:24:40;;;;;;;7.50;3.03;;;;;;;;;;5096282;28;20043;-70
2021/09/13 06:27:07;;;;;;;11.60;3.35;;;;;;;;;;5075795;28;20062;-69
2021/09/13 06:29:34;;;;;;;9.90;3.63;;;;;;;;;;5081118;28;20047;-72
2021/09/13 06:32:00;;;;;;;8.70;2.97;;;;;;;;;;5083537;28;20044;-71
2021/09/13 06:34:27;;;;;;;11.98;3.85;;;;;;;;;;5085804;28;20050;-71
2021/09/13 06:36:54;;;;;;;12.80;3.40;;;;;;;;;;5090430;28;20074;-71
2021/09/13 06:39:20;;;;;;;8.85;3.17;;;;;;;;;;5081321;28;20085;-71
2021/09/13 06:41:46;;;;;;;8.35;3.45;;;;;;;;;;5081177;28;20051;-71
2021/09/13 06:44:15;;;;;;;9.80;3.47;;;;;;;;;;5080516;28;20483;-72
2021/09/13 06:49:08;;;;;;;7.28;3.22;;;;;;;;;;5085440;28;20066;-71
2021/09/13 06:51:34;;;;;;;10.32;3.00;;;;;;;;;;5080635;28;20051;-71
2021/09/13 06:54:00;;;;;;;6.10;2.50;;;;;;;;;;5095983;28;20040;-71
2021/09/13 06:56:26;;;;;;;8.40;2.72;;;;;;;;;;5081834;28;20463;-71
2021/09/13 06:58:53;;;;;;;14.23;3.00;;;;;;;;;;5093393;28;20151;-73
2021/09/13 07:01:25;;;;;;;13.45;2.85;;;;;;;;;;5073311;28;20116;-73
2021/09/13 07:03:57;;;;;;;9.85;2.88;;;;;;;;;;5055001;28;20146;-73
2021/09/13 07:06:24;;;;;;;11.73;2.83;;;;;;;;;;5077427;28;20512;-73
2021/09/13 07:08:51;;;;;;;10.10;2.05;;;;;;;;;;5056929;28;20352;-73
2021/09/13 07:11:18;;;;;;;12.32;1.80;;;;;;;;;;5075813;28;20051;-73
2021/09/13 07:13:44;;;;;;;9.57;1.83;;;;;;;;;;5074301;28;20149;-73
2021/09/13 07:16:10;;;;;;;10.32;2.53;;;;;;;;;;5074100;28;20604;-73
2021/09/13 07:18:36;;;;;;;12.70;2.17;;;;;;;;;;5082569;28;20043;-71
2021/09/13 07:21:03;;;;;;;9.05;1.83;;;;;;;;;;5097791;28;20471;-71
2021/09/13 07:23:29;;;;;;;11.07;1.77;;;;;;;;;;5101729;28;20134;-71
2021/09/13 07:25:55;;;;;;;9.70;1.70;;;;;;;;;;5095315;28;20503;-72
2021/09/13 07:28:21;;;;;;;7.72;1.63;;;;;;;;;;5077750;28;21126;-70
2021/09/13 07:30:48;;;;;;;10.30;1.75;;;;;;;;;;5096064;28;20151;-71
2021/09/13 07:33:14;;;;;;;8.40;1.58;;;;;;;;;;5075284;28;20141;-70
2021/09/13 07:35:40;;;;;;;10.48;1.98;;;;;;;;;;5075453;28;20052;-71
2021/09/13 07:38:06;;;;;;;8.82;2.53;;;;;;;;;;5100593;28;20088;-70
2021/09/13 07:40:33;;;;;;;6.20;1.65;;;;;;;;;;5082424;28;20035;-71
2021/09/13 07:42:59;;;;;;;10.90;1.63;;;;;;;;;;5081400;28;20058;-70
2021/09/13 07:45:26;;;;;;;11.57;2.53;;;;;;;;;;5083820;28;20086;-71
2021/09/13 07:47:52;;;;;;;8.98;2.20;;;;;;;;;;5096664;28;20040;-71
2021/09/13 07:50:18;;;;;;;11.15;2.10;;;;;;;;;;5102359;28;20051;-71
2021/09/13 07:52:44;;;;;;;8.40;1.50;;;;;;;;;;5081595;28;20085;-71
2021/09/13 07:55:11;;;;;;;8.90;1.90;;;;;;;;;;5079314;28;20055;-71
2021/09/13 07:57:37;;;;;;;9.20;2.13;;;;;;;;;;5064573;28;20459;-71
2021/09/13 08:00:04;;;;;;;11.20;2.03;;;;;;;;;;5076308;28;20504;-69
2021/09/13 08:02:31;;;;;;;8.50;1.83;;;;;;;;;;5077114;28;20359;-70
2021/09/13 08:05:01;;;;;;;6.20;1.60;;;;;;;;;;5077164;28;20517;-70
2021/09/13 08:07:27;;;;;;;10.57;1.73;;;;;;;;;;5104469;28;20447;-70
2021/09/13 08:09:53;;;;;;;11.32;1.60;;;;;;;;;;5083824;28;20104;-70
2021/09/13 08:12:19;;;;;;;8.45;1.88;;;;;;;;;;5101104;28;20090;-70
2021/09/13 08:14:46;;;;;;;7.72;1.75;;;;;;;;;;5094142;28;20055;-70
2021/09/13 08:17:12;;;;;;;8.15;1.50;;;;;;;;;;5094509;28;20047;-71
2021/09/13 08:19:40;;;;;;;6.28;1.35;;;;;;;;;;5094975;28;20540;-70
2021/09/13 08:22:07;;;;;;;4.68;1.60;;;;;;;;;;5080308;28;20042;-71
2021/09/13 08:24:34;;;;;;;4.88;1.17;;;;;;;;;;5094441;28;20043;-70
2021/09/13 08:27:00;;;;;;;7.28;1.20;;;;;;;;;;5079560;28;20089;-70
2021/09/13 08:29:26;;;;;;;4.72;1.83;;;;;;;;;;5099079;28;20056;-70
2021/09/13 08:31:55;;;;;;;7.75;1.58;;;;;;;;;;5098701;28;20479;-70
2021/09/13 08:34:21;;;;;;;8.52;1.58;;;;;;;;;;5082441;28;20048;-70
2021/09/13 08:36:48;;;;;;;3.60;1.00;;;;;;;;;;5058952;28;20043;-70
2021/09/13 08:39:15;;;;;;;3.42;1.00;;;;;;;;;;5079862;28;20079;-71
2021/09/13 08:41:41;;;;;;;5.45;1.35;;;;;;;;;;5097136;28;20036;-70
2021/09/13 08:44:08;;;;;;;5.47;1.00;;;;;;;;;;5097604;28;20083;-70
2021/09/13 08:46:52;;;;;;;5.03;1.00;;;;;;;;;;5080013;28;20035;-70
2021/09/13 08:49:32;;;;;;;6.00;1.05;;;;;;;;;;5098326;28;20044;-70
2021/09/13 08:51:59;;;;;;;5.85;2.35;;;;;;;;;;5085701;28;20113;-70
2021/09/13 08:54:28;;;;;;;9.70;1.45;;;;;;;;;;5080961;28;20035;-70
2021/09/13 08:56:59;;;;;;;5.15;0.98;;;;;;;;;;5080279;28;20043;-70
2021/09/13 08:59:26;;;;;;;5.32;1.25;;;;;;;;;;5081708;28;20060;-71
2021/09/13 09:01:53;;;;;;;4.47;1.20;;;;;;;;;;5098240;28;20119;-70
2021/09/13 09:04:20;;;;;;;2.40;1.20;;;;;;;;;;5082988;28;20052;-71
2021/09/13 09:06:46;;;;;;;4.43;1.35;;;;;;;;;;5082258;28;20039;-70
2021/09/13 09:09:14;;;;;;;5.97;1.00;;;;;;;;;;5086356;28;20082;-70
2021/09/13 09:11:49;;;;;;;4.53;1.10;;;;;;;;;;5103460;28;20071;-70
2021/09/13 09:14:25;;;;;;;4.15;0.90;;;;;;;;;;5100610;28;20115;-70
2021/09/13 09:16:57;;;;;;;3.05;0.88;;;;;;;;;;5086030;28;20447;-70
2021/09/13 09:19:23;;;;;;;5.82;0.90;;;;;;;;;;5064998;28;20486;-70
2021/09/13 09:21:50;;;;;;;5.20;0.80;;;;;;;;;;5099357;28;20130;-70
2021/09/13 09:24:16;;;;;;;2.65;0.80;;;;;;;;;;5086387;28;20054;-70
2021/09/13 09:26:59;;;;;;;4.70;1.17;;;;;;;;;;5087437;28;20043;-70
2021/09/13 09:29:28;;;;;;;3.40;1.35;;;;;;;;;;5102793;28;20073;-70
2021/09/13 09:31:57;;;;;;;5.00;1.20;;;;;;;;;;5083672;28;20056;-70
2021/09/13 09:34:25;;;;;;;5.57;1.08;;;;;;;;;;5101840;28;20366;-70
2021/09/13 09:36:58;;;;;;;8.27;0.90;;;;;;;;;;5098645;28;20402;-70
2021/09/13 09:39:29;;;;;;;5.57;1.08;;;;;;;;;;5071315;28;20500;-70
2021/09/13 09:41:56;;;;;;;3.33;0.90;;;;;;;;;;5105329;28;20039;-70
2021/09/13 09:44:23;;;;;;;21.80;1.75;;;;;;;;;;5083078;28;20077;-70
2021/09/13 09:46:51;;;;;;;7.13;1.20;;;;;;;;;;5088009;28;20131;-70
2021/09/13 09:49:18;;;;;;;3.20;0.82;;;;;;;;;;5086449;28;20052;-70
2021/09/13 09:51:49;;;;;;;5.10;0.85;;;;;;;;;;5099110;28;20055;-70
2021/09/13 09:54:25;;;;;;;5.50;1.00;;;;;;;;;;5086501;28;20043;-70
2021/09/13 09:56:58;;;;;;;2.20;0.60;;;;;;;;;;5096197;28;20138;-70
2021/09/13 09:59:24;;;;;;;4.55;0.75;;;;;;;;;;5086053;28;20119;-70
2021/09/13 10:01:57;;;;;;;6.85;0.88;;;;;;;;;;5087864;28;20432;-70
2021/09/13 10:04:25;;;;;;;4.50;0.90;;;;;;;;;;5099049;28;20116;-70
2021/09/13 10:06:54;;;;;;;3.47;0.90;;;;;;;;;;5080040;28;20065;-70
2021/09/13 10:09:21;;;;;;;7.22;0.93;;;;;;;;;;5080986;28;20071;-70
2021/09/13 10:11:48;;;;;;;6.22;1.00;;;;;;;;;;5081589;28;20036;-70
2021/09/13 10:14:15;;;;;;;4.70;0.90;;;;;;;;;;5089053;28;20092;-70
2021/09/13 10:16:43;;;;;;;5.65;1.45;;;;;;;;;;5079839;28;20044;-70
2021/09/13 10:19:09;;;;;;;4.75;1.10;;;;;;;;;;5078245;28;20048;-70
2021/09/13 10:21:35;;;;;;;6.07;1.55;;;;;;;;;;5085683;28;20046;-70
2021/09/13 10:24:03;;;;;;;4.22;1.10;;;;;;;;;;5086552;28;20421;-70
2021/09/13 10:26:29;;;;;;;6.38;0.75;;;;;;;;;;5098821;28;20039;-70
2021/09/13 10:29:01;;;;;;;3.95;0.70;;;;;;;;;;5089323;28;20067;-70
2021/09/13 10:31:44;;;;;;;2.90;0.70;;;;;;;;;;5077347;28;20101;-70
2021/09/13 10:34:15;;;;;;;4.60;0.88;;;;;;;;;;5079210;28;20280;-71
2021/09/13 10:37:04;;;;;;;3.72;0.90;;;;;;;;;;5083519;28;20085;-70
2021/09/13 10:39:49;;;;;;;4.45;0.90;;;;;;;;;;5079850;28;20047;-70
2021/09/13 10:42:28;;;;;;;3.25;0.90;;;;;;;;;;5099493;28;20079;-70
2021/09/13 10:45:07;;;;;;;2.83;0.80;;;;;;;;;;5094246;28;20047;-70
2021/09/13 10:47:33;;;;;;;7.72;1.15;;;;;;;;;;5098967;28;20063;-70
2021/09/13 10:50:12;;;;;;;3.40;1.00;;;;;;;;;;5081799;28;20109;-70
2021/09/13 10:52:39;;;;;;;4.32;0.75;;;;;;;;;;5085230;28;20048;-70
2021/09/13 10:55:08;;;;;;;7.80;1.58;;;;;;;;;;5078088;28;20031;-70
2021/09/13 10:57:53;;;;;;;6.18;1.05;;;;;;;;;;5080821;28;20048;-70
2021/09/13 11:00:39;;;;;;;7.40;0.85;;;;;;;;;;5084420;28;20043;-70
2021/09/13 11:03:29;;;;;;;3.20;0.80;;;;;;;;;;5078336;28;20040;-70
2021/09/13 11:06:14;;;;;;;8.20;1.08;;;;;;;;;;5077296;28;20055;-71
2021/09/13 11:08:41;;;;;;;6.15;0.95;;;;;;;;;;5086362;28;20136;-70
2021/09/13 11:11:11;;;;;;;5.75;0.95;;;;;;;;;;5077352;28;20048;-71
2021/09/13 11:13:38;;;;;;;5.10;1.05;;;;;;;;;;5081663;28;20086;-71
2021/09/13 11:16:05;;;;;;;5.80;0.82;;;;;;;;;;5096604;28;20448;-71
2021/09/13 11:18:33;;;;;;;2.78;1.00;;;;;;;;;;5080499;28;20104;-70
2021/09/13 11:21:13;;;;;;;4.28;1.15;;;;;;;;;;5065613;28;20144;-70
2021/09/13 11:23:39;;;;;;;6.10;1.15;;;;;;;;;;5083533;28;20404;-70
2021/09/13 11:26:05;;;;;;;7.20;1.17;;;;;;;;;;5081692;28;20065;-71
2021/09/13 11:28:31;;;;;;;5.72;1.00;;;;;;;;;;5078394;28;20403;-72
2021/09/13 11:30:58;;;;;;;2.28;0.80;;;;;;;;;;5066887;28;20051;-71
2021/09/13 11:33:24;;;;;;;5.65;1.10;;;;;;;;;;5099027;28;20052;-71
2021/09/13 11:35:55;;;;;;;7.07;1.00;;;;;;;;;;5097291;28;20128;-71
2021/09/13 11:38:21;;;;;;;3.65;0.73;;;;;;;;;;5096714;28;20790;-72
2021/09/13 11:40:48;;;;;;;4.68;0.90;;;;;;;;;;5094942;28;20040;-72
2021/09/13 11:43:14;;;;;;;3.78;0.70;;;;;;;;;;5093556;28;20217;-72
2021/09/13 11:45:40;;;;;;;6.47;1.10;;;;;;;;;;5095010;28;20462;-72
2021/09/13 11:48:07;;;;;;;7.53;1.23;;;;;;;;;;5080855;28;20035;-72
2021/09/13 11:50:34;;;;;;;4.00;0.88;;;;;;;;;;5078899;28;20130;-71
2021/09/13 11:53:11;;;;;;;6.68;1.25;;;;;;;;;;5081031;28;20055;-70
2021/09/13 11:55:38;;;;;;;3.92;0.88;;;;;;;;;;5078976;28;20109;-69
2021/09/13 11:58:07;;;;;;;3.35;1.00;;;;;;;;;;5095322;28;20040;-69
2021/09/13 12:00:39;;;;;;;4.22;1.30;;;;;;;;;;5077355;28;20075;-69
2021/09/13 12:03:07;;;;;;;2.20;1.10;;;;;;;;;;5079538;28;20059;-69
2021/09/13 12:05:34;;;;;;;3.17;0.70;;;;;;;;;;5080705;28;20811;-69
2021/09/13 12:08:01;;;;;;;2.88;0.70;;;;;;;;;;5083427;28;20048;-70
2021/09/13 12:10:29;;;;;;;3.50;0.80;;;;;;;;;;5064942;28;20443;-70
2021/09/13 12:12:56;;;;;;;3.30;0.90;;;;;;;;;;5085804;28;20360;-70
2021/09/13 12:15:25;;;;;;;2.58;0.60;;;;;;;;;;5084084;28;20890;-70
2021/09/13 12:17:52;;;;;;;8.73;0.93;;;;;;;;;;5099298;28;20039;-70
2021/09/13 12:20:20;;;;;;;4.70;1.00;;;;;;;;;;5084986;28;20487;-70
2021/09/13 12:22:47;;;;;;;5.05;1.20;;;;;;;;;;5102896;28;20396;-70
2021/09/13 12:25:15;;;;;;;3.35;0.80;;;;;;;;;;5084404;28;20043;-71
2021/09/13 12:27:42;;;;;;;4.25;1.02;;;;;;;;;;5087557;28;20040;-71
2021/09/13 12:30:13;;;;;;;3.58;0.80;;;;;;;;;;5083525;28;20043;-71
2021/09/13 12:32:39;;;;;;;2.13;0.70;;;;;;;;;;5101684;28;20127;-70
2021/09/13 12:35:07;;;;;;;1.98;0.68;;;;;;;;;;5068527;28;20056;-70
2021/09/13 12:37:39;;;;;;;5.25;1.20;;;;;;;;;;5083274;28;20047;-71
2021/09/13 12:40:10;;;;;;;3.50;1.00;;;;;;;;;;5088050;28;20384;-70
2021/09/13 12:42:37;;;;;;;5.32;1.00;;;;;;;;;;5086643;28;20394;-70
2021/09/13 12:45:04;;;;;;;11.35;1.60;;;;;;;;;;5083677;28;20131;-71
2021/09/13 12:47:31;;;;;;;5.28;1.10;;;;;;;;;;5081295;28;20204;-71
2021/09/13 12:49:57;;;;;;;4.13;0.98;;;;;;;;;;5104147;28;20046;-71
2021/09/13 12:52:24;;;;;;;5.10;1.25;;;;;;;;;;5100364;28;20075;-70
2021/09/13 12:54:51;;;;;;;5.88;1.00;;;;;;;;;;5089127;28;20035;-70
2021/09/13 12:57:33;;;;;;;2.78;0.93;;;;;;;;;;5087433;28;20388;-70
2021/09/13 13:00:08;;;;;;;3.53;0.90;;;;;;;;;;5070520;28;20118;-70
2021/09/13 13:02:34;;;;;;;4.93;0.90;;;;;;;;;;5087507;28;20101;-71
2021/09/13 13:05:00;;;;;;;3.13;0.80;;;;;;;;;;5086526;28;20092;-71
2021/09/13 13:07:26;;;;;;;5.72;1.20;;;;;;;;;;5088578;28;20131;-70
2021/09/13 13:09:52;;;;;;;3.15;0.70;;;;;;;;;;5090086;28;20132;-71
2021/09/13 13:12:19;;;;;;;6.53;1.00;;;;;;;;;;5089623;28;20036;-71
2021/09/13 13:14:45;;;;;;;6.03;0.90;;;;;;;;;;5086181;28;20067;-71
2021/09/13 13:17:11;;;;;;;4.05;0.90;;;;;;;;;;5101321;28;20047;-70
2021/09/13 13:19:37;;;;;;;8.38;1.52;;;;;;;;;;5101885;28;20455;-71
2021/09/13 13:22:04;;;;;;;5.22;1.40;;;;;;;;;;5099822;28;20040;-70
2021/09/13 13:24:30;;;;;;;3.85;0.95;;;;;;;;;;5087651;28;20055;-70
2021/09/13 13:26:58;;;;;;;3.63;0.90;;;;;;;;;;5086957;28;20103;-71
2021/09/13 13:29:25;;;;;;;7.32;1.50;;;;;;;;;;5086045;28;20066;-70
2021/09/13 13:31:52;;;;;;;5.68;1.17;;;;;;;;;;5082901;28;20074;-70
2021/09/13 13:34:18;;;;;;;4.40;1.05;;;;;;;;;;5080027;28;20055;-70
2021/09/13 13:36:44;;;;;;;5.45;1.13;;;;;;;;;;5082735;28;20529;-70
2021/09/13 13:39:11;;;;;;;3.38;0.98;;;;;;;;;;5080282;28;20158;-71
2021/09/13 13:41:37;;;;;;;4.28;1.00;;;;;;;;;;5081230;28;20047;-72
2021/09/13 13:44:04;;;;;;;5.10;1.10;;;;;;;;;;5083032;28;20039;-71
2021/09/13 13:46:31;;;;;;;3.75;0.77;;;;;;;;;;5085942;28;20035;-71
2021/09/13 13:48:57;;;;;;;5.32;0.93;;;;;;;;;;5076079;28;20043;-72
2021/09/13 13:51:24;;;;;;;4.40;1.17;;;;;;;;;;5080992;28;20055;-71
2021/09/13 13:53:50;;;;;;;6.55;1.30;;;;;;;;;;5077097;28;20059;-71
2021/09/13 13:56:17;;;;;;;5.43;1.38;;;;;;;;;;5077542;28;20059;-71
2021/09/13 13:58:43;;;;;;;10.13;1.30;;;;;;;;;;5065529;28;20047;-72
2021/09/13 14:01:09;;;;;;;3.50;0.73;;;;;;;;;;5080241;28;20058;-71
2021/09/13 14:03:35;;;;;;;6.32;1.20;;;;;;;;;;5077569;28;20040;-72
2021/09/13 14:06:01;;;;;;;6.35;1.80;;;;;;;;;;5077492;28;20158;-71
2021/09/13 14:08:28;;;;;;;5.85;1.33;;;;;;;;;;5081278;28;20047;-72
2021/09/13 14:10:54;;;;;;;8.10;1.50;;;;;;;;;;5086416;28;20036;-72
2021/09/13 14:13:20;;;;;;;7.65;1.35;;;;;;;;;;5080969;28;20068;-71
2021/09/13 14:15:46;;;;;;;8.68;1.55;;;;;;;;;;5089041;28;20051;-71
2021/09/13 14:18:12;;;;;;;6.53;1.40;;;;;;;;;;5081008;28;20468;-72
2021/09/13 14:20:41;;;;;;;5.90;1.73;;;;;;;;;;5098840;28;20043;-72
2021/09/13 14:23:07;;;;;;;9.55;1.63;;;;;;;;;;5100522;28;20074;-72
2021/09/13 14:25:34;;;;;;;3.33;1.10;;;;;;;;;;5098386;28;20039;-72
2021/09/13 14:28:01;;;;;;;5.90;1.30;;;;;;;;;;5085232;28;20040;-72
2021/09/13 14:30:28;;;;;;;7.15;1.10;;;;;;;;;;5082422;28;20066;-72
2021/09/13 14:32:54;;;;;;;5.72;1.00;;;;;;;;;;5086030;28;20471;-72
2021/09/13 14:35:20;;;;;;;4.03;1.25;;;;;;;;;;5085085;28;20059;-72
2021/09/13 14:37:48;;;;;;;10.25;1.83;;;;;;;;;;5101499;28;20082;-71
2021/09/13 14:40:14;;;;;;;5.78;1.40;;;;;;;;;;5087408;28;20518;-72
2021/09/13 14:42:41;;;;;;;7.57;1.52;;;;;;;;;;5096045;28;20087;-72
2021/09/13 14:45:08;;;;;;;4.35;1.17;;;;;;;;;;5099273;28;20110;-72